sensor_id;sensor_type;location;lat;lon;timestamp;P1;durP1;ratioP1;P2;durP2;ratioP2
77466;SDS011;66564;42.482;25.548;2024-02-28T00:01:32;12.65;;;5.78;;
77466;SDS011;66564;42.482;25.548;2024-02-28T00:03:57;14.30;;;5.70;;
77466;SDS011;66564;42.482;25.548;2024-02-28T00:06:23;15.00;;;5.55;;
77466;SDS011;66564;42.482;25.548;2024-02-28T00:08:48;14.55;;;6.10;;
77466;SDS011;66564;42.482;25.548;2024-02-28T00:11:16;12.88;;;5.53;;
77466;SDS011;66564;42.482;25.548;2024-02-28T00:13:41;15.05;;;6.20;;
77466;SDS011;66564;42.482;25.548;2024-02-28T00:16:07;15.15;;;5.20;;
77466;SDS011;66564;42.482;25.548;2024-02-28T00:18:32;17.33;;;6.32;;
77466;SDS011;66564;42.482;25.548;2024-02-28T00:20:58;16.48;;;7.10;;
77466;SDS011;66564;42.482;25.548;2024-02-28T00:23:24;14.45;;;5.88;;
77466;SDS011;66564;42.482;25.548;2024-02-28T00:25:49;15.70;;;6.05;;
77466;SDS011;66564;42.482;25.548;2024-02-28T00:28:15;11.20;;;6.53;;
77466;SDS011;66564;42.482;25.548;2024-02-28T00:30:40;11.82;;;5.28;;
77466;SDS011;66564;42.482;25.548;2024-02-28T00:33:06;9.27;;;5.35;;
77466;SDS011;66564;42.482;25.548;2024-02-28T00:35:31;15.52;;;5.85;;
77466;SDS011;66564;42.482;25.548;2024-02-28T00:37:58;15.20;;;6.05;;
77466;SDS011;66564;42.482;25.548;2024-02-28T00:40:24;12.85;;;5.93;;
77466;SDS011;66564;42.482;25.548;2024-02-28T00:42:50;14.38;;;5.90;;
77466;SDS011;66564;42.482;25.548;2024-02-28T00:45:16;13.68;;;6.63;;
77466;SDS011;66564;42.482;25.548;2024-02-28T00:47:41;11.13;;;6.85;;
77466;SDS011;66564;42.482;25.548;2024-02-28T00:50:07;15.85;;;6.18;;
77466;SDS011;66564;42.482;25.548;2024-02-28T00:52:33;10.70;;;6.15;;
77466;SDS011;66564;42.482;25.548;2024-02-28T00:54:59;11.75;;;5.10;;
77466;SDS011;66564;42.482;25.548;2024-02-28T00:57:24;12.45;;;5.88;;
77466;SDS011;66564;42.482;25.548;2024-02-28T00:59:50;17.50;;;5.90;;
77466;SDS011;66564;42.482;25.548;2024-02-28T01:02:16;14.90;;;5.80;;
77466;SDS011;66564;42.482;25.548;2024-02-28T01:04:41;14.07;;;6.45;;
77466;SDS011;66564;42.482;25.548;2024-02-28T01:07:07;11.80;;;6.20;;
77466;SDS011;66564;42.482;25.548;2024-02-28T01:09:32;11.02;;;6.15;;
77466;SDS011;66564;42.482;25.548;2024-02-28T01:11:58;13.95;;;6.15;;
77466;SDS011;66564;42.482;25.548;2024-02-28T01:14:24;14.20;;;6.35;;
77466;SDS011;66564;42.482;25.548;2024-02-28T01:16:49;13.70;;;6.28;;
77466;SDS011;66564;42.482;25.548;2024-02-28T01:19:15;12.00;;;5.57;;
77466;SDS011;66564;42.482;25.548;2024-02-28T01:21:41;13.07;;;5.78;;
77466;SDS011;66564;42.482;25.548;2024-02-28T01:24:07;21.85;;;8.43;;
77466;SDS011;66564;42.482;25.548;2024-02-28T01:26:32;11.60;;;6.97;;
77466;SDS011;66564;42.482;25.548;2024-02-28T01:28:58;11.90;;;6.07;;
77466;SDS011;66564;42.482;25.548;2024-02-28T01:31:23;14.45;;;5.60;;
77466;SDS011;66564;42.482;25.548;2024-02-28T01:33:49;10.35;;;5.93;;
77466;SDS011;66564;42.482;25.548;2024-02-28T01:36:14;13.73;;;6.18;;
77466;SDS011;66564;42.482;25.548;2024-02-28T01:38:40;12.32;;;5.80;;
77466;SDS011;66564;42.482;25.548;2024-02-28T01:41:06;19.02;;;6.82;;
77466;SDS011;66564;42.482;25.548;2024-02-28T01:43:31;14.80;;;6.57;;
77466;SDS011;66564;42.482;25.548;2024-02-28T01:45:59;14.70;;;5.70;;
77466;SDS011;66564;42.482;25.548;2024-02-28T01:48:28;13.13;;;6.38;;
77466;SDS011;66564;42.482;25.548;2024-02-28T01:50:53;16.10;;;6.55;;
77466;SDS011;66564;42.482;25.548;2024-02-28T01:53:19;13.05;;;6.38;;
77466;SDS011;66564;42.482;25.548;2024-02-28T01:55:45;18.95;;;6.85;;
77466;SDS011;66564;42.482;25.548;2024-02-28T01:58:10;14.00;;;6.35;;
77466;SDS011;66564;42.482;25.548;2024-02-28T02:00:37;13.20;;;6.38;;
77466;SDS011;66564;42.482;25.548;2024-02-28T02:03:03;13.27;;;6.13;;
77466;SDS011;66564;42.482;25.548;2024-02-28T02:05:29;19.60;;;6.13;;
77466;SDS011;66564;42.482;25.548;2024-02-28T02:07:55;13.00;;;6.72;;
77466;SDS011;66564;42.482;25.548;2024-02-28T02:10:22;16.00;;;6.00;;
77466;SDS011;66564;42.482;25.548;2024-02-28T02:12:48;14.18;;;6.25;;
77466;SDS011;66564;42.482;25.548;2024-02-28T02:15:13;18.42;;;6.82;;
77466;SDS011;66564;42.482;25.548;2024-02-28T02:17:39;20.88;;;6.60;;
77466;SDS011;66564;42.482;25.548;2024-02-28T02:20:04;12.75;;;5.15;;
77466;SDS011;66564;42.482;25.548;2024-02-28T02:22:35;11.43;;;5.53;;
77466;SDS011;66564;42.482;25.548;2024-02-28T02:25:03;18.52;;;6.25;;
77466;SDS011;66564;42.482;25.548;2024-02-28T02:27:29;18.55;;;6.35;;
77466;SDS011;66564;42.482;25.548;2024-02-28T02:29:54;19.10;;;6.32;;
77466;SDS011;66564;42.482;25.548;2024-02-28T02:32:20;16.65;;;6.55;;
77466;SDS011;66564;42.482;25.548;2024-02-28T02:34:48;18.27;;;6.85;;
77466;SDS011;66564;42.482;25.548;2024-02-28T02:37:14;13.23;;;5.75;;
77466;SDS011;66564;42.482;25.548;2024-02-28T02:39:39;13.75;;;6.93;;
77466;SDS011;66564;42.482;25.548;2024-02-28T02:42:05;14.35;;;5.82;;
77466;SDS011;66564;42.482;25.548;2024-02-28T02:44:30;12.30;;;5.65;;
77466;SDS011;66564;42.482;25.548;2024-02-28T02:46:56;16.52;;;6.20;;
77466;SDS011;66564;42.482;25.548;2024-02-28T02:49:22;14.45;;;6.43;;
77466;SDS011;66564;42.482;25.548;2024-02-28T02:51:47;17.00;;;5.88;;
77466;SDS011;66564;42.482;25.548;2024-02-28T02:54:12;12.93;;;5.97;;
77466;SDS011;66564;42.482;25.548;2024-02-28T02:56:40;16.85;;;6.45;;
77466;SDS011;66564;42.482;25.548;2024-02-28T02:59:07;14.65;;;6.55;;
77466;SDS011;66564;42.482;25.548;2024-02-28T03:01:32;19.13;;;6.00;;
77466;SDS011;66564;42.482;25.548;2024-02-28T03:03:58;13.68;;;6.22;;
77466;SDS011;66564;42.482;25.548;2024-02-28T03:06:23;15.40;;;6.60;;
77466;SDS011;66564;42.482;25.548;2024-02-28T03:08:49;19.52;;;6.93;;
77466;SDS011;66564;42.482;25.548;2024-02-28T03:11:14;12.38;;;6.40;;
77466;SDS011;66564;42.482;25.548;2024-02-28T03:13:40;12.88;;;5.95;;
77466;SDS011;66564;42.482;25.548;2024-02-28T03:16:05;17.25;;;6.75;;
77466;SDS011;66564;42.482;25.548;2024-02-28T03:18:31;19.67;;;6.05;;
77466;SDS011;66564;42.482;25.548;2024-02-28T03:20:57;20.42;;;6.72;;
77466;SDS011;66564;42.482;25.548;2024-02-28T03:23:22;15.35;;;6.43;;
77466;SDS011;66564;42.482;25.548;2024-02-28T03:25:48;12.43;;;6.20;;
77466;SDS011;66564;42.482;25.548;2024-02-28T03:28:13;17.45;;;7.70;;
77466;SDS011;66564;42.482;25.548;2024-02-28T03:30:39;14.52;;;6.22;;
77466;SDS011;66564;42.482;25.548;2024-02-28T03:33:04;17.20;;;6.93;;
77466;SDS011;66564;42.482;25.548;2024-02-28T03:35:30;11.63;;;6.28;;
77466;SDS011;66564;42.482;25.548;2024-02-28T03:37:55;14.05;;;6.65;;
77466;SDS011;66564;42.482;25.548;2024-02-28T03:40:21;12.63;;;6.82;;
77466;SDS011;66564;42.482;25.548;2024-02-28T03:42:46;25.00;;;7.85;;
77466;SDS011;66564;42.482;25.548;2024-02-28T03:45:12;13.85;;;7.13;;
77466;SDS011;66564;42.482;25.548;2024-02-28T03:47:37;18.42;;;6.38;;
77466;SDS011;66564;42.482;25.548;2024-02-28T03:50:03;18.27;;;7.63;;
77466;SDS011;66564;42.482;25.548;2024-02-28T03:52:29;14.65;;;6.53;;
77466;SDS011;66564;42.482;25.548;2024-02-28T03:54:55;15.95;;;6.40;;
77466;SDS011;66564;42.482;25.548;2024-02-28T03:57:22;11.60;;;5.43;;
77466;SDS011;66564;42.482;25.548;2024-02-28T03:59:47;13.35;;;7.43;;
77466;SDS011;66564;42.482;25.548;2024-02-28T04:02:13;17.85;;;8.73;;
77466;SDS011;66564;42.482;25.548;2024-02-28T04:04:38;16.25;;;7.55;;
77466;SDS011;66564;42.482;25.548;2024-02-28T04:07:04;27.05;;;7.85;;
77466;SDS011;66564;42.482;25.548;2024-02-28T04:09:29;15.95;;;7.93;;
77466;SDS011;66564;42.482;25.548;2024-02-28T04:11:55;19.92;;;8.43;;
77466;SDS011;66564;42.482;25.548;2024-02-28T04:14:23;22.38;;;8.32;;
77466;SDS011;66564;42.482;25.548;2024-02-28T04:16:49;20.20;;;8.20;;
77466;SDS011;66564;42.482;25.548;2024-02-28T04:19:15;17.83;;;7.75;;
77466;SDS011;66564;42.482;25.548;2024-02-28T04:21:41;17.45;;;8.00;;
77466;SDS011;66564;42.482;25.548;2024-02-28T04:24:07;13.60;;;7.75;;
77466;SDS011;66564;42.482;25.548;2024-02-28T04:26:34;24.58;;;8.02;;
77466;SDS011;66564;42.482;25.548;2024-02-28T04:29:01;17.45;;;8.32;;
77466;SDS011;66564;42.482;25.548;2024-02-28T04:31:30;15.07;;;6.88;;
77466;SDS011;66564;42.482;25.548;2024-02-28T04:33:55;18.17;;;8.10;;
77466;SDS011;66564;42.482;25.548;2024-02-28T04:36:21;17.13;;;8.13;;
77466;SDS011;66564;42.482;25.548;2024-02-28T04:38:46;19.58;;;8.60;;
77466;SDS011;66564;42.482;25.548;2024-02-28T04:41:12;17.65;;;7.35;;
77466;SDS011;66564;42.482;25.548;2024-02-28T04:43:37;15.50;;;7.35;;
77466;SDS011;66564;42.482;25.548;2024-02-28T04:46:03;16.08;;;8.30;;
77466;SDS011;66564;42.482;25.548;2024-02-28T04:48:28;15.48;;;7.53;;
77466;SDS011;66564;42.482;25.548;2024-02-28T04:50:54;15.63;;;7.15;;
77466;SDS011;66564;42.482;25.548;2024-02-28T04:53:19;16.95;;;7.35;;
77466;SDS011;66564;42.482;25.548;2024-02-28T04:55:45;21.98;;;7.07;;
77466;SDS011;66564;42.482;25.548;2024-02-28T04:58:11;24.52;;;7.72;;
77466;SDS011;66564;42.482;25.548;2024-02-28T05:00:36;14.40;;;6.72;;
77466;SDS011;66564;42.482;25.548;2024-02-28T05:03:01;17.67;;;6.72;;
77466;SDS011;66564;42.482;25.548;2024-02-28T05:05:27;14.30;;;8.13;;
77466;SDS011;66564;42.482;25.548;2024-02-28T05:07:52;17.08;;;7.10;;
77466;SDS011;66564;42.482;25.548;2024-02-28T05:10:18;14.75;;;6.82;;
77466;SDS011;66564;42.482;25.548;2024-02-28T05:12:43;19.88;;;7.85;;
77466;SDS011;66564;42.482;25.548;2024-02-28T05:15:09;20.92;;;6.43;;
77466;SDS011;66564;42.482;25.548;2024-02-28T05:17:35;10.80;;;6.53;;
77466;SDS011;66564;42.482;25.548;2024-02-28T05:20:00;14.98;;;7.05;;
77466;SDS011;66564;42.482;25.548;2024-02-28T05:22:25;18.42;;;7.32;;
77466;SDS011;66564;42.482;25.548;2024-02-28T05:24:51;19.05;;;9.90;;
77466;SDS011;66564;42.482;25.548;2024-02-28T05:27:17;16.33;;;8.18;;
77466;SDS011;66564;42.482;25.548;2024-02-28T05:29:42;16.40;;;7.35;;
77466;SDS011;66564;42.482;25.548;2024-02-28T05:32:08;19.73;;;8.23;;
77466;SDS011;66564;42.482;25.548;2024-02-28T05:34:34;18.63;;;8.07;;
77466;SDS011;66564;42.482;25.548;2024-02-28T05:37:00;15.57;;;9.30;;
77466;SDS011;66564;42.482;25.548;2024-02-28T05:39:26;19.95;;;9.10;;
77466;SDS011;66564;42.482;25.548;2024-02-28T05:41:54;21.80;;;9.52;;
77466;SDS011;66564;42.482;25.548;2024-02-28T05:44:20;21.05;;;10.77;;
77466;SDS011;66564;42.482;25.548;2024-02-28T05:46:45;20.88;;;11.65;;
77466;SDS011;66564;42.482;25.548;2024-02-28T05:49:11;20.02;;;10.73;;
77466;SDS011;66564;42.482;25.548;2024-02-28T05:51:37;29.58;;;11.15;;
77466;SDS011;66564;42.482;25.548;2024-02-28T05:54:03;29.58;;;11.27;;
77466;SDS011;66564;42.482;25.548;2024-02-28T05:56:28;28.73;;;12.82;;
77466;SDS011;66564;42.482;25.548;2024-02-28T05:58:55;29.33;;;11.68;;
77466;SDS011;66564;42.482;25.548;2024-02-28T06:01:24;36.05;;;11.85;;
77466;SDS011;66564;42.482;25.548;2024-02-28T06:03:49;24.60;;;12.68;;
77466;SDS011;66564;42.482;25.548;2024-02-28T06:06:15;25.20;;;12.40;;
77466;SDS011;66564;42.482;25.548;2024-02-28T06:08:42;24.15;;;12.75;;
77466;SDS011;66564;42.482;25.548;2024-02-28T06:11:08;21.48;;;11.80;;
77466;SDS011;66564;42.482;25.548;2024-02-28T06:13:35;27.75;;;10.98;;
77466;SDS011;66564;42.482;25.548;2024-02-28T06:16:00;21.50;;;10.85;;
77466;SDS011;66564;42.482;25.548;2024-02-28T06:18:27;21.52;;;9.30;;
77466;SDS011;66564;42.482;25.548;2024-02-28T06:20:53;20.17;;;10.35;;
77466;SDS011;66564;42.482;25.548;2024-02-28T06:23:19;21.75;;;10.93;;
77466;SDS011;66564;42.482;25.548;2024-02-28T06:25:45;25.70;;;10.95;;
77466;SDS011;66564;42.482;25.548;2024-02-28T06:28:11;30.08;;;11.52;;
77466;SDS011;66564;42.482;25.548;2024-02-28T06:30:36;27.27;;;11.43;;
77466;SDS011;66564;42.482;25.548;2024-02-28T06:33:02;24.75;;;11.68;;
77466;SDS011;66564;42.482;25.548;2024-02-28T06:35:28;24.80;;;12.20;;
77466;SDS011;66564;42.482;25.548;2024-02-28T06:37:53;30.52;;;12.50;;
77466;SDS011;66564;42.482;25.548;2024-02-28T06:40:19;26.15;;;11.85;;
77466;SDS011;66564;42.482;25.548;2024-02-28T06:42:45;23.67;;;12.25;;
77466;SDS011;66564;42.482;25.548;2024-02-28T06:45:11;22.73;;;11.35;;
77466;SDS011;66564;42.482;25.548;2024-02-28T06:47:36;23.00;;;12.15;;
77466;SDS011;66564;42.482;25.548;2024-02-28T06:50:03;24.83;;;11.60;;
77466;SDS011;66564;42.482;25.548;2024-02-28T06:52:29;20.90;;;11.15;;
77466;SDS011;66564;42.482;25.548;2024-02-28T06:54:55;25.17;;;10.80;;
77466;SDS011;66564;42.482;25.548;2024-02-28T06:57:20;25.15;;;11.57;;
77466;SDS011;66564;42.482;25.548;2024-02-28T06:59:46;25.65;;;10.98;;
77466;SDS011;66564;42.482;25.548;2024-02-28T07:02:11;17.27;;;10.82;;
77466;SDS011;66564;42.482;25.548;2024-02-28T07:04:38;29.17;;;11.70;;
77466;SDS011;66564;42.482;25.548;2024-02-28T07:07:03;18.85;;;10.18;;
77466;SDS011;66564;42.482;25.548;2024-02-28T07:09:29;19.02;;;10.05;;
77466;SDS011;66564;42.482;25.548;2024-02-28T07:11:57;21.52;;;9.40;;
77466;SDS011;66564;42.482;25.548;2024-02-28T07:14:23;22.60;;;9.82;;
77466;SDS011;66564;42.482;25.548;2024-02-28T07:16:49;35.38;;;10.98;;
77466;SDS011;66564;42.482;25.548;2024-02-28T07:19:14;16.95;;;9.82;;
77466;SDS011;66564;42.482;25.548;2024-02-28T07:21:40;35.08;;;11.05;;
77466;SDS011;66564;42.482;25.548;2024-02-28T07:24:06;36.83;;;10.05;;
77466;SDS011;66564;42.482;25.548;2024-02-28T07:26:31;20.67;;;10.30;;
77466;SDS011;66564;42.482;25.548;2024-02-28T07:28:57;21.08;;;9.48;;
77466;SDS011;66564;42.482;25.548;2024-02-28T07:31:22;26.25;;;10.65;;
77466;SDS011;66564;42.482;25.548;2024-02-28T07:33:48;23.08;;;9.30;;
77466;SDS011;66564;42.482;25.548;2024-02-28T07:36:16;99.22;;;16.08;;
77466;SDS011;66564;42.482;25.548;2024-02-28T07:38:41;21.33;;;10.52;;
77466;SDS011;66564;42.482;25.548;2024-02-28T07:41:07;28.38;;;10.02;;
77466;SDS011;66564;42.482;25.548;2024-02-28T07:43:33;22.05;;;10.05;;
77466;SDS011;66564;42.482;25.548;2024-02-28T07:46:02;43.67;;;10.05;;
77466;SDS011;66564;42.482;25.548;2024-02-28T07:48:31;17.92;;;10.32;;
77466;SDS011;66564;42.482;25.548;2024-02-28T07:50:56;21.48;;;9.90;;
77466;SDS011;66564;42.482;25.548;2024-02-28T07:53:22;17.38;;;9.13;;
77466;SDS011;66564;42.482;25.548;2024-02-28T07:55:47;19.55;;;9.60;;
77466;SDS011;66564;42.482;25.548;2024-02-28T07:58:14;20.98;;;10.90;;
77466;SDS011;66564;42.482;25.548;2024-02-28T08:00:41;27.45;;;10.35;;
77466;SDS011;66564;42.482;25.548;2024-02-28T08:03:07;27.65;;;12.35;;
77466;SDS011;66564;42.482;25.548;2024-02-28T08:05:32;23.35;;;10.15;;
77466;SDS011;66564;42.482;25.548;2024-02-28T08:08:04;21.58;;;10.20;;
77466;SDS011;66564;42.482;25.548;2024-02-28T08:10:31;21.77;;;9.77;;
77466;SDS011;66564;42.482;25.548;2024-02-28T08:12:56;29.55;;;10.15;;
77466;SDS011;66564;42.482;25.548;2024-02-28T08:15:22;27.05;;;9.35;;
77466;SDS011;66564;42.482;25.548;2024-02-28T08:17:48;54.03;;;11.98;;
77466;SDS011;66564;42.482;25.548;2024-02-28T08:20:13;48.85;;;12.55;;
77466;SDS011;66564;42.482;25.548;2024-02-28T08:22:39;17.73;;;10.35;;
77466;SDS011;66564;42.482;25.548;2024-02-28T08:25:04;25.95;;;10.75;;
77466;SDS011;66564;42.482;25.548;2024-02-28T08:27:30;22.00;;;9.63;;
77466;SDS011;66564;42.482;25.548;2024-02-28T08:29:56;36.35;;;10.48;;
77466;SDS011;66564;42.482;25.548;2024-02-28T08:32:21;22.13;;;10.48;;
77466;SDS011;66564;42.482;25.548;2024-02-28T08:34:47;22.10;;;10.38;;
77466;SDS011;66564;42.482;25.548;2024-02-28T08:37:12;47.22;;;12.20;;
77466;SDS011;66564;42.482;25.548;2024-02-28T08:39:38;25.15;;;12.18;;
77466;SDS011;66564;42.482;25.548;2024-02-28T08:42:05;22.88;;;8.82;;
77466;SDS011;66564;42.482;25.548;2024-02-28T08:44:31;23.25;;;10.25;;
77466;SDS011;66564;42.482;25.548;2024-02-28T08:46:56;30.58;;;10.32;;
77466;SDS011;66564;42.482;25.548;2024-02-28T08:49:22;23.98;;;10.55;;
77466;SDS011;66564;42.482;25.548;2024-02-28T08:51:47;19.88;;;9.80;;
77466;SDS011;66564;42.482;25.548;2024-02-28T08:54:13;19.13;;;9.88;;
77466;SDS011;66564;42.482;25.548;2024-02-28T08:56:38;20.02;;;9.65;;
77466;SDS011;66564;42.482;25.548;2024-02-28T08:59:04;19.67;;;9.68;;
77466;SDS011;66564;42.482;25.548;2024-02-28T09:01:30;45.38;;;12.13;;
77466;SDS011;66564;42.482;25.548;2024-02-28T09:03:55;23.17;;;8.90;;
77466;SDS011;66564;42.482;25.548;2024-02-28T09:06:21;18.83;;;10.55;;
77466;SDS011;66564;42.482;25.548;2024-02-28T09:08:46;21.70;;;9.20;;
77466;SDS011;66564;42.482;25.548;2024-02-28T09:11:11;16.23;;;8.90;;
77466;SDS011;66564;42.482;25.548;2024-02-28T09:13:37;20.35;;;8.82;;
77466;SDS011;66564;42.482;25.548;2024-02-28T09:16:03;40.53;;;11.00;;
77466;SDS011;66564;42.482;25.548;2024-02-28T09:18:29;21.98;;;9.30;;
77466;SDS011;66564;42.482;25.548;2024-02-28T09:20:54;27.50;;;9.02;;
77466;SDS011;66564;42.482;25.548;2024-02-28T09:23:20;22.95;;;9.63;;
77466;SDS011;66564;42.482;25.548;2024-02-28T09:25:46;22.88;;;8.55;;
77466;SDS011;66564;42.482;25.548;2024-02-28T09:28:11;20.85;;;8.13;;
77466;SDS011;66564;42.482;25.548;2024-02-28T09:30:42;16.40;;;7.80;;
77466;SDS011;66564;42.482;25.548;2024-02-28T09:33:08;16.42;;;8.65;;
77466;SDS011;66564;42.482;25.548;2024-02-28T09:35:34;17.20;;;8.32;;
77466;SDS011;66564;42.482;25.548;2024-02-28T09:38:01;19.30;;;8.23;;
77466;SDS011;66564;42.482;25.548;2024-02-28T09:40:27;15.88;;;7.50;;
77466;SDS011;66564;42.482;25.548;2024-02-28T09:42:53;15.05;;;7.95;;
77466;SDS011;66564;42.482;25.548;2024-02-28T09:45:30;14.68;;;7.07;;
77466;SDS011;66564;42.482;25.548;2024-02-28T09:48:00;17.45;;;8.30;;
77466;SDS011;66564;42.482;25.548;2024-02-28T09:50:26;14.13;;;7.82;;
77466;SDS011;66564;42.482;25.548;2024-02-28T09:52:52;17.25;;;8.07;;
77466;SDS011;66564;42.482;25.548;2024-02-28T09:55:18;16.38;;;8.68;;
77466;SDS011;66564;42.482;25.548;2024-02-28T09:57:45;20.05;;;9.05;;
77466;SDS011;66564;42.482;25.548;2024-02-28T10:00:16;19.38;;;8.05;;
77466;SDS011;66564;42.482;25.548;2024-02-28T10:02:44;17.60;;;8.02;;
77466;SDS011;66564;42.482;25.548;2024-02-28T10:05:13;14.73;;;7.57;;
77466;SDS011;66564;42.482;25.548;2024-02-28T10:07:40;15.18;;;7.50;;
77466;SDS011;66564;42.482;25.548;2024-02-28T10:10:06;14.52;;;7.97;;
77466;SDS011;66564;42.482;25.548;2024-02-28T10:12:33;15.13;;;7.30;;
77466;SDS011;66564;42.482;25.548;2024-02-28T10:15:00;14.55;;;7.03;;
77466;SDS011;66564;42.482;25.548;2024-02-28T10:17:26;13.98;;;7.15;;
77466;SDS011;66564;42.482;25.548;2024-02-28T10:19:52;15.45;;;8.48;;
77466;SDS011;66564;42.482;25.548;2024-02-28T10:22:17;15.63;;;7.28;;
77466;SDS011;66564;42.482;25.548;2024-02-28T10:24:43;13.38;;;7.65;;
77466;SDS011;66564;42.482;25.548;2024-02-28T10:27:08;15.77;;;6.97;;
77466;SDS011;66564;42.482;25.548;2024-02-28T10:29:34;14.32;;;7.68;;
77466;SDS011;66564;42.482;25.548;2024-02-28T10:31:59;17.90;;;7.10;;
77466;SDS011;66564;42.482;25.548;2024-02-28T10:34:27;13.38;;;7.50;;
77466;SDS011;66564;42.482;25.548;2024-02-28T10:36:53;14.02;;;7.10;;
77466;SDS011;66564;42.482;25.548;2024-02-28T10:39:19;16.63;;;7.18;;
77466;SDS011;66564;42.482;25.548;2024-02-28T10:41:46;11.38;;;6.85;;
77466;SDS011;66564;42.482;25.548;2024-02-28T10:44:14;16.80;;;7.65;;
77466;SDS011;66564;42.482;25.548;2024-02-28T10:46:41;18.25;;;6.80;;
77466;SDS011;66564;42.482;25.548;2024-02-28T10:49:08;12.73;;;6.28;;
77466;SDS011;66564;42.482;25.548;2024-02-28T10:51:35;13.75;;;7.07;;
77466;SDS011;66564;42.482;25.548;2024-02-28T10:54:08;15.70;;;6.85;;
77466;SDS011;66564;42.482;25.548;2024-02-28T10:56:36;13.55;;;7.35;;
77466;SDS011;66564;42.482;25.548;2024-02-28T10:59:08;14.73;;;6.72;;
77466;SDS011;66564;42.482;25.548;2024-02-28T11:01:38;14.27;;;6.57;;
77466;SDS011;66564;42.482;25.548;2024-02-28T11:04:09;13.60;;;6.90;;
77466;SDS011;66564;42.482;25.548;2024-02-28T11:06:35;12.27;;;6.57;;
77466;SDS011;66564;42.482;25.548;2024-02-28T11:09:12;12.15;;;6.43;;
77466;SDS011;66564;42.482;25.548;2024-02-28T11:11:43;11.93;;;6.57;;
77466;SDS011;66564;42.482;25.548;2024-02-28T11:14:14;13.65;;;5.93;;
77466;SDS011;66564;42.482;25.548;2024-02-28T11:16:40;13.15;;;5.60;;
77466;SDS011;66564;42.482;25.548;2024-02-28T11:19:09;12.05;;;6.03;;
77466;SDS011;66564;42.482;25.548;2024-02-28T11:21:54;12.63;;;5.38;;
77466;SDS011;66564;42.482;25.548;2024-02-28T11:24:23;20.08;;;7.15;;
77466;SDS011;66564;42.482;25.548;2024-02-28T11:26:50;12.55;;;6.20;;
77466;SDS011;66564;42.482;25.548;2024-02-28T11:29:21;15.18;;;5.80;;
77466;SDS011;66564;42.482;25.548;2024-02-28T11:31:51;13.60;;;5.68;;
77466;SDS011;66564;42.482;25.548;2024-02-28T11:34:19;12.60;;;6.20;;
77466;SDS011;66564;42.482;25.548;2024-02-28T11:36:49;16.85;;;6.43;;
77466;SDS011;66564;42.482;25.548;2024-02-28T11:39:16;12.48;;;6.28;;
77466;SDS011;66564;42.482;25.548;2024-02-28T11:41:43;13.43;;;7.32;;
77466;SDS011;66564;42.482;25.548;2024-02-28T11:44:11;10.60;;;5.82;;
77466;SDS011;66564;42.482;25.548;2024-02-28T11:46:38;12.65;;;6.28;;
77466;SDS011;66564;42.482;25.548;2024-02-28T11:49:07;11.07;;;7.35;;
77466;SDS011;66564;42.482;25.548;2024-02-28T11:51:33;11.52;;;6.45;;
77466;SDS011;66564;42.482;25.548;2024-02-28T11:54:00;13.13;;;8.20;;
77466;SDS011;66564;42.482;25.548;2024-02-28T11:56:26;13.98;;;6.97;;
77466;SDS011;66564;42.482;25.548;2024-02-28T11:58:55;19.05;;;8.07;;
77466;SDS011;66564;42.482;25.548;2024-02-28T12:01:33;16.58;;;8.18;;
77466;SDS011;66564;42.482;25.548;2024-02-28T12:03:59;20.50;;;7.45;;
77466;SDS011;66564;42.482;25.548;2024-02-28T12:06:28;14.57;;;7.13;;
77466;SDS011;66564;42.482;25.548;2024-02-28T12:08:54;21.70;;;8.75;;
77466;SDS011;66564;42.482;25.548;2024-02-28T12:11:20;23.42;;;8.90;;
77466;SDS011;66564;42.482;25.548;2024-02-28T12:13:45;20.17;;;9.30;;
77466;SDS011;66564;42.482;25.548;2024-02-28T12:16:11;25.42;;;8.20;;
77466;SDS011;66564;42.482;25.548;2024-02-28T12:18:36;21.85;;;8.50;;
77466;SDS011;66564;42.482;25.548;2024-02-28T12:21:02;15.95;;;7.63;;
77466;SDS011;66564;42.482;25.548;2024-02-28T12:23:28;16.52;;;8.35;;
77466;SDS011;66564;42.482;25.548;2024-02-28T12:25:54;12.32;;;6.78;;
77466;SDS011;66564;42.482;25.548;2024-02-28T12:28:19;15.30;;;7.05;;
77466;SDS011;66564;42.482;25.548;2024-02-28T12:30:45;12.05;;;6.00;;
77466;SDS011;66564;42.482;25.548;2024-02-28T12:33:10;12.60;;;5.95;;
77466;SDS011;66564;42.482;25.548;2024-02-28T12:35:39;11.13;;;5.95;;
77466;SDS011;66564;42.482;25.548;2024-02-28T12:38:06;18.13;;;7.55;;
77466;SDS011;66564;42.482;25.548;2024-02-28T12:40:32;14.10;;;6.90;;
77466;SDS011;66564;42.482;25.548;2024-02-28T12:42:57;15.70;;;7.35;;
77466;SDS011;66564;42.482;25.548;2024-02-28T12:45:23;17.73;;;8.93;;
77466;SDS011;66564;42.482;25.548;2024-02-28T12:47:48;22.85;;;9.43;;
77466;SDS011;66564;42.482;25.548;2024-02-28T12:50:13;16.00;;;8.30;;
77466;SDS011;66564;42.482;25.548;2024-02-28T12:52:39;15.40;;;8.70;;
77466;SDS011;66564;42.482;25.548;2024-02-28T12:55:04;13.13;;;7.65;;
77466;SDS011;66564;42.482;25.548;2024-02-28T12:57:30;12.77;;;8.02;;
77466;SDS011;66564;42.482;25.548;2024-02-28T12:59:56;17.38;;;7.20;;
77466;SDS011;66564;42.482;25.548;2024-02-28T13:02:21;12.20;;;6.93;;
77466;SDS011;66564;42.482;25.548;2024-02-28T13:04:47;13.25;;;6.85;;
77466;SDS011;66564;42.482;25.548;2024-02-28T13:07:12;16.33;;;7.75;;
77466;SDS011;66564;42.482;25.548;2024-02-28T13:09:38;20.10;;;9.18;;
77466;SDS011;66564;42.482;25.548;2024-02-28T13:12:03;17.67;;;8.65;;
77466;SDS011;66564;42.482;25.548;2024-02-28T13:14:30;15.07;;;9.43;;
77466;SDS011;66564;42.482;25.548;2024-02-28T13:16:56;17.00;;;9.13;;
77466;SDS011;66564;42.482;25.548;2024-02-28T13:19:23;21.38;;;8.63;;
77466;SDS011;66564;42.482;25.548;2024-02-28T13:21:48;21.92;;;8.32;;
77466;SDS011;66564;42.482;25.548;2024-02-28T13:24:14;16.88;;;8.63;;
77466;SDS011;66564;42.482;25.548;2024-02-28T13:26:41;16.10;;;8.57;;
77466;SDS011;66564;42.482;25.548;2024-02-28T13:29:07;17.98;;;8.20;;
77466;SDS011;66564;42.482;25.548;2024-02-28T13:31:32;15.30;;;8.50;;
77466;SDS011;66564;42.482;25.548;2024-02-28T13:33:59;15.57;;;8.88;;
77466;SDS011;66564;42.482;25.548;2024-02-28T13:36:25;19.65;;;8.30;;
77466;SDS011;66564;42.482;25.548;2024-02-28T13:38:51;18.33;;;8.00;;
77466;SDS011;66564;42.482;25.548;2024-02-28T13:41:17;17.27;;;8.55;;
77466;SDS011;66564;42.482;25.548;2024-02-28T13:43:42;17.08;;;8.43;;
77466;SDS011;66564;42.482;25.548;2024-02-28T13:46:08;20.10;;;9.25;;
77466;SDS011;66564;42.482;25.548;2024-02-28T13:48:35;23.25;;;9.13;;
77466;SDS011;66564;42.482;25.548;2024-02-28T13:51:00;19.13;;;8.23;;
77466;SDS011;66564;42.482;25.548;2024-02-28T13:53:27;16.05;;;9.77;;
77466;SDS011;66564;42.482;25.548;2024-02-28T13:55:52;86.95;;;44.72;;
77466;SDS011;66564;42.482;25.548;2024-02-28T13:58:18;166.77;;;78.97;;
77466;SDS011;66564;42.482;25.548;2024-02-28T14:00:44;63.50;;;27.05;;
77466;SDS011;66564;42.482;25.548;2024-02-28T14:03:13;53.30;;;25.30;;
77466;SDS011;66564;42.482;25.548;2024-02-28T14:05:39;26.95;;;13.13;;
77466;SDS011;66564;42.482;25.548;2024-02-28T14:08:05;16.83;;;9.18;;
77466;SDS011;66564;42.482;25.548;2024-02-28T14:10:34;75.15;;;35.67;;
77466;SDS011;66564;42.482;25.548;2024-02-28T14:12:59;46.80;;;22.10;;